Fenwick, Michigan
Current Conditions -  °F | °C
As of 11:54 PM on Saturday 22 Nov 2014 (Local Time) from KY70 Reporting Station
Overcast Overcast  
Wind Chill: 41°   Ceiling: 5000
Heat Index: 45°   Visibility: 10mi
Dew Point: 43°   Wind: 7mph
Humidity: 95%   Direction: 220°SW
Pressure: 29.88"   Gusts: NA
Location:  43.15°N, 85.08°W
Report Text: KY70 230454Z AUTO 22006KT 10SM SCT023 BKN050 OVC055 07/06 A2988 RMK AO2 T00700063
Loading
Personal Weather Stations






























Interactive Weather Map New forecast layout! Learn more

10-Day Weather Forecast

Advertisements
Track Severe Weather on mobile